Česky Dansk Deutsch English Español Suomi Français Magyar Italiano Nederlands norsk Polski Português svenska Türkçe

 

Weather

Antwerpen / Deurne (Belgium)

13:20, 23 August 2016 (GMT)

NWNNE
WE
SWSSE
Home            
Antwerpen / Deurne Brasschaat Woensdrecht Melsbroek Bel-Afb Bruxelles National Weelde Military Gent / Industrie-Zone Schaffen Gilze-Rijen Beauvechain Goetsenhoven Munte Sint-Truiden Kleine Brogel Eindhoven Genk Charleroi / Gosselies Chievres Rotterdam Airport Zestienhoven Bierset Maastricht Airport Zuid Limburg Volkel Florennes

To put a weather button on your web site or blog, copy the code below and paste it into your page . The first box contains HTML code, the second UBB code.


Add to Google

Details

Wind speed:2 bf, 4 kn, 2.1 m/s, 4.6 miles/h, 7.4 km/h
Wind direction:ESE, 110° - W, 270°
Visibility:Greater than 10000 m, 10 km, 32800 ft, 6.2 miles
Clouds:CAVOC
Temperature:28°C, 82°F
Feels like:28°C, 82°F
Dew-point:15°C, 59°F
Atmospheric pressure:1025 hPa, 768.8 mmHg, 30.27 inHg, 1.012 atm
Relative humidity:45.1 %
METAR:EBAW 231320Z 18004KT 110V270 CAVOK 28/15 Q1025 NOSIG

Shortcuts

An up-to-date overview of weather conditions all over the world. Add locations with the plus (+) sign. These shortcuts can be added to Google.

Lid van de Technetium groep

website free tracking
StatCounter NetStat W3C Validator

21-11-2017 11:18:10
astro.technetium.be money.technetium.be phote.technetium.be tafeltennistafel.technetium.be www.ligfiets.net